createdAt,value
2023-05-20T00:00:19.977Z,98878.34
2023-05-20T00:02:26.688Z,98871.97
2023-05-20T00:04:28.305Z,98868.69
2023-05-20T00:06:29.918Z,98876.19
2023-05-20T00:08:31.810Z,98874.53
2023-05-20T00:10:33.274Z,98870.13
2023-05-20T00:12:37.702Z,98874.03
2023-05-20T00:14:45.342Z,98869.59
2023-05-20T00:16:47.332Z,98867.66
2023-05-20T00:18:49.024Z,98863.22
2023-05-20T00:20:50.638Z,98859.13
2023-05-20T00:22:52.192Z,98871.03
2023-05-20T00:24:53.915Z,98861.09
2023-05-20T00:26:55.453Z,98861.09
2023-05-20T00:28:57.040Z,98853.91
2023-05-20T00:30:58.641Z,98850.31
2023-05-20T00:33:00.218Z,98855.03
2023-05-20T00:35:02.678Z,98856.47
2023-05-20T00:37:04.252Z,98851.25
2023-05-20T00:39:08.613Z,98849.28
2023-05-20T00:41:10.380Z,98847.66
2023-05-20T00:43:15.625Z,98847.97
2023-05-20T00:45:17.685Z,98845.50
2023-05-20T00:49:37.736Z,98843.03
2023-05-20T00:51:39.254Z,98847.75
2023-05-20T00:53:41.976Z,98832.28
2023-05-20T00:55:43.727Z,98844.47
2023-05-20T00:57:54.522Z,98846.75
2023-05-20T00:59:56.936Z,98840.38
2023-05-20T01:01:59.084Z,98850.63
2023-05-20T01:04:00.804Z,98850.94
2023-05-20T01:06:03.222Z,98852.06
2023-05-20T01:08:05.188Z,98851.22
2023-05-20T01:10:07.561Z,98843.25
2023-05-20T01:12:16.466Z,98849.91
2023-05-20T01:14:19.814Z,98851.03
2023-05-20T01:16:24.596Z,98843.03
2023-05-20T01:18:30.176Z,98846.13
2023-05-20T01:20:35.661Z,98845.28
2023-05-20T01:22:53.234Z,98829.81
2023-05-20T01:24:55.069Z,98832.59
2023-05-20T01:26:58.162Z,98830.13
2023-05-20T01:29:04.751Z,98835.03
2023-05-20T01:31:20.277Z,98825.72
2023-05-20T01:33:24.540Z,98822.94
2023-05-20T01:35:26.681Z,98829.59
2023-05-20T01:37:28.982Z,98825.72
2023-05-20T01:39:31.696Z,98829.94
2023-05-20T01:41:35.646Z,98825.19
2023-05-20T01:43:39.147Z,98822.72
2023-05-20T01:45:44.085Z,98814.44
2023-05-20T01:47:46.152Z,98815.53
2023-05-20T01:49:47.966Z,98820.28
2023-05-20T01:51:49.563Z,98815.84
2023-05-20T01:53:53.849Z,98818.59
2023-05-20T01:55:59.067Z,98815.00
2023-05-20T01:58:04.595Z,98813.38
2023-05-20T02:00:06.969Z,98812.25
2023-05-20T02:02:18.153Z,98819.72
2023-05-20T02:04:19.810Z,98817.59
2023-05-20T02:06:23.135Z,98816.16
2023-05-20T02:08:24.668Z,98811.72
2023-05-20T02:10:26.421Z,98812.84
2023-05-20T02:12:28.082Z,98809.56
2023-05-20T02:14:29.826Z,98808.47
2023-05-20T02:16:31.414Z,98809.28
2023-05-20T02:18:35.236Z,98803.22
2023-05-20T02:20:39.619Z,98802.41
2023-05-20T02:22:41.276Z,98795.22
2023-05-20T02:24:43.674Z,98800.75
2023-05-20T02:26:46.775Z,98800.75
2023-05-20T02:28:51.640Z,98800.75
2023-05-20T02:30:56.423Z,98800.75
2023-05-20T02:32:58.020Z,98803.03
2023-05-20T02:34:59.894Z,98795.53
2023-05-20T02:37:03.591Z,98805.78
2023-05-20T02:39:08.184Z,98804.97
2023-05-20T02:41:09.751Z,98802.19
2023-05-20T02:43:11.391Z,98809.66
2023-05-20T02:45:13.074Z,98802.19
2023-05-20T02:47:15.101Z,98806.09
2023-05-20T02:49:16.619Z,98806.41
2023-05-20T02:51:18.373Z,98803.63
2023-05-20T02:53:20.951Z,98801.97
2023-05-20T02:55:23.752Z,98796.75
2023-05-20T02:57:27.352Z,98801.97
2023-05-20T02:59:29.073Z,98796.75
2023-05-20T03:01:33.871Z,98803.41
2023-05-20T03:03:35.743Z,98805.38
2023-05-20T03:05:42.377Z,98810.38
2023-05-20T03:07:43.933Z,98800.47
2023-05-20T03:09:46.066Z,98804.34
2023-05-20T03:11:48.357Z,98804.34
2023-05-20T03:13:49.985Z,98808.53
2023-05-20T03:15:52.867Z,98807.72
2023-05-20T03:17:54.360Z,98813.06
2023-05-20T03:19:56.183Z,98811.41
2023-05-20T03:22:00.744Z,98804.53
2023-05-20T03:24:02.304Z,98812.31
2023-05-20T03:26:03.857Z,98816.22
2023-05-20T03:28:06.728Z,98818.97
2023-05-20T03:30:11.125Z,98814.59
2023-05-20T03:32:13.836Z,98818.47
2023-05-20T03:34:15.538Z,98812.94
2023-05-20T03:36:17.474Z,98810.16
2023-05-20T03:38:19.000Z,98809.66
2023-05-20T03:40:21.228Z,98802.47
2023-05-20T03:42:23.444Z,98807.50
2023-05-20T03:44:25.061Z,98809.16
2023-05-20T03:46:26.674Z,98811.91
2023-05-20T03:48:28.210Z,98810.25
2023-05-20T03:50:31.246Z,98813.03
2023-05-20T03:52:32.938Z,98804.72
2023-05-20T03:54:36.221Z,98814.97
2023-05-20T03:56:38.606Z,98815.28
2023-05-20T03:58:40.484Z,98818.06
2023-05-20T04:00:42.586Z,98814.44
2023-05-20T04:02:44.647Z,98820.31
2023-05-20T04:04:52.957Z,98821.41
2023-05-20T04:06:54.621Z,98821.41
2023-05-20T04:08:59.250Z,98816.19
2023-05-20T04:11:00.856Z,98811.78
2023-05-20T04:13:02.409Z,98823.69
2023-05-20T04:15:04.758Z,98822.84
2023-05-20T04:17:17.828Z,98815.69
2023-05-20T04:19:19.862Z,98811.28
2023-05-20T04:21:21.766Z,98815.97
2023-05-20T04:23:24.122Z,98821.50
2023-05-20T04:25:26.220Z,98809.63
2023-05-20T04:27:28.855Z,98817.63
2023-05-20T04:29:36.313Z,98817.91
2023-05-20T04:31:38.654Z,98820.69
2023-05-20T04:33:40.420Z,98821.00
2023-05-20T04:35:48.501Z,98816.28
2023-05-20T04:37:51.816Z,98817.91
2023-05-20T04:39:53.857Z,98816.47
2023-05-20T04:41:55.424Z,98819.25
2023-05-20T04:44:01.517Z,98822.84
2023-05-20T04:46:11.916Z,98821.72
2023-05-20T04:48:14.763Z,98813.72
2023-05-20T04:50:16.300Z,98813.72
2023-05-20T04:52:18.180Z,98823.16
2023-05-20T04:54:20.471Z,98824.78
2023-05-20T04:56:24.708Z,98825.63
2023-05-20T04:58:26.313Z,98822.84
2023-05-20T05:00:27.815Z,98824.50
2023-05-20T05:02:29.587Z,98831.66
2023-05-20T05:04:34.195Z,98828.09
2023-05-20T05:06:36.459Z,98830.53
2023-05-20T05:08:38.041Z,98827.78
2023-05-20T05:10:39.846Z,98823.91
2023-05-20T05:12:45.134Z,98823.59
2023-05-20T05:14:46.700Z,98822.47
2023-05-20T05:16:55.668Z,98817.22
2023-05-20T05:18:57.705Z,98820.00
2023-05-20T05:21:04.089Z,98810.56
2023-05-20T05:23:06.537Z,98805.03
2023-05-20T05:25:12.210Z,98793.16
2023-05-20T05:27:13.815Z,98803.91
2023-05-20T05:29:17.928Z,98803.63
2023-05-20T05:31:19.481Z,98803.00
2023-05-20T05:33:24.322Z,98796.03
2023-05-20T05:35:36.263Z,98789.59
2023-05-20T05:37:38.146Z,98783.13
2023-05-20T05:39:40.238Z,98784.34
2023-05-20T05:41:41.824Z,98781.50
2023-05-20T05:43:43.519Z,98786.59
2023-05-20T05:45:45.292Z,98786.81
2023-05-20T05:47:47.083Z,98780.09
2023-05-20T05:49:49.432Z,98782.09
2023-05-20T05:51:51.808Z,98788.06
2023-05-20T05:53:54.082Z,98785.69
2023-05-20T05:55:55.658Z,98779.44
2023-05-20T05:57:57.665Z,98775.94
2023-05-20T06:00:01.313Z,98779.59
2023-05-20T06:02:10.385Z,98768.91
2023-05-20T06:04:12.395Z,98769.28
2023-05-20T06:06:15.108Z,98775.53
2023-05-20T06:08:16.719Z,98772.84
2023-05-20T06:10:19.422Z,98767.38
2023-05-20T06:12:21.304Z,98766.34
2023-05-20T06:14:25.793Z,98781.56
2023-05-20T06:16:27.469Z,98769.38
2023-05-20T06:18:29.421Z,98770.44
2023-05-20T06:20:35.639Z,98775.09
2023-05-20T06:22:43.367Z,98767.00
2023-05-20T06:24:45.019Z,98768.41
2023-05-20T06:26:49.884Z,98764.72
2023-05-20T06:28:51.421Z,98756.91
2023-05-20T06:30:56.529Z,98748.78
2023-05-20T06:33:00.087Z,98751.72
2023-05-20T06:35:01.906Z,98743.91
2023-05-20T06:37:03.589Z,98747.22
2023-05-20T06:39:06.495Z,98746.94
2023-05-20T06:41:12.909Z,98748.22
2023-05-20T06:43:14.905Z,98745.94
2023-05-20T06:45:23.105Z,98747.56
2023-05-20T06:47:28.786Z,98748.06
2023-05-20T06:49:30.641Z,98746.13
2023-05-20T06:51:32.239Z,98746.59
2023-05-20T06:53:36.313Z,98739.06
2023-05-20T06:55:38.975Z,98744.28
2023-05-20T06:57:41.121Z,98741.50
2023-05-20T06:59:42.849Z,98740.31
2023-05-20T07:01:50.729Z,98745.03
2023-05-20T07:03:53.342Z,98741.72
2023-05-20T07:05:54.875Z,98738.94
2023-05-20T07:07:56.872Z,98733.97
2023-05-20T07:09:58.920Z,98724.75
2023-05-20T07:12:00.810Z,98723.47
2023-05-20T07:14:02.735Z,98726.88
2023-05-20T07:16:06.226Z,98729.94
2023-05-20T07:18:07.914Z,98728.59
2023-05-20T07:20:09.912Z,98722.81
2023-05-20T07:22:11.936Z,98725.91
2023-05-20T07:24:26.656Z,98723.41
2023-05-20T07:26:28.228Z,98720.06
2023-05-20T07:28:32.990Z,98717.59
2023-05-20T07:30:34.644Z,98732.63
2023-05-20T07:32:55.121Z,98717.75
2023-05-20T07:34:56.926Z,98714.47
2023-05-20T07:36:58.469Z,98711.94
2023-05-20T07:39:03.516Z,98714.53
2023-05-20T07:41:13.989Z,98716.44
2023-05-20T07:43:15.619Z,98718.66
2023-05-20T07:45:17.568Z,98707.28
2023-05-20T07:47:19.615Z,98712.34
2023-05-20T07:49:21.630Z,98718.16
2023-05-20T07:51:23.360Z,98711.19
2023-05-20T07:53:25.900Z,98705.38
2023-05-20T07:55:28.059Z,98709.63
2023-05-20T07:57:30.905Z,98714.19
2023-05-20T07:59:32.973Z,98703.97
2023-05-20T08:01:34.834Z,98702.94
2023-05-20T08:03:37.607Z,98702.34
2023-05-20T08:05:44.275Z,98699.69
2023-05-20T08:07:45.889Z,98699.47
2023-05-20T08:09:51.314Z,98702.34
2023-05-20T08:11:53.702Z,98697.03
2023-05-20T08:13:55.320Z,98694.00
2023-05-20T08:16:01.504Z,98691.81
2023-05-20T08:18:03.700Z,98689.25
2023-05-20T08:20:06.189Z,98689.47
2023-05-20T08:22:08.697Z,98688.56
2023-05-20T08:24:10.364Z,98689.63
2023-05-20T08:26:11.972Z,98695.06
2023-05-20T08:28:16.653Z,98688.53
2023-05-20T08:30:18.334Z,98685.63
2023-05-20T08:32:19.945Z,98685.47
2023-05-20T08:34:21.514Z,98680.56
2023-05-20T08:36:23.598Z,98675.16
2023-05-20T08:38:25.500Z,98675.06
2023-05-20T08:40:27.365Z,98674.91
2023-05-20T08:42:28.988Z,98682.78
2023-05-20T08:44:35.828Z,98683.47
2023-05-20T08:46:38.603Z,98675.28
2023-05-20T08:48:42.203Z,98678.72
2023-05-20T08:50:50.615Z,98664.09
2023-05-20T08:52:52.655Z,98654.28
2023-05-20T08:54:54.439Z,98661.72
2023-05-20T08:56:57.100Z,98672.31
2023-05-20T08:59:02.926Z,98664.09
2023-05-20T09:01:07.535Z,98666.69
2023-05-20T09:03:10.098Z,98664.53
2023-05-20T09:05:14.261Z,98668.78
2023-05-20T09:07:26.848Z,98655.38
2023-05-20T09:09:30.098Z,98665.63
2023-05-20T09:11:31.613Z,98671.06
2023-05-20T09:13:34.144Z,98674.13
2023-05-20T09:15:36.986Z,98665.47
2023-05-20T09:17:39.112Z,98664.47
2023-05-20T09:19:41.532Z,98668.69
2023-05-20T09:21:43.808Z,98661.63
2023-05-20T09:23:50.425Z,98653.38
2023-05-20T09:25:52.495Z,98665.53
2023-05-20T09:27:54.791Z,98659.97
2023-05-20T09:29:57.087Z,98660.50
2023-05-20T09:32:04.399Z,98660.63
2023-05-20T09:34:06.527Z,98657.19
2023-05-20T09:36:09.033Z,98665.75
2023-05-20T09:38:12.257Z,98668.31
2023-05-20T09:40:15.700Z,98658.94
2023-05-20T09:42:45.064Z,98666.78
2023-05-20T09:44:49.385Z,98669.84
2023-05-20T09:46:53.097Z,98658.81
2023-05-20T09:48:55.033Z,98667.06
2023-05-20T09:50:57.625Z,98665.72
2023-05-20T09:53:03.758Z,98656.31
2023-05-20T09:55:06.309Z,98653.66
2023-05-20T09:57:08.018Z,98638.94
2023-05-20T09:59:11.554Z,98650.00
2023-05-20T10:01:13.489Z,98642.09
2023-05-20T10:03:15.662Z,98644.22
2023-05-20T10:05:21.713Z,98648.28
2023-05-20T10:07:43.525Z,98631.38
2023-05-20T10:10:11.974Z,98641.03
2023-05-20T10:12:38.398Z,98639.03
2023-05-20T10:15:14.556Z,98642.22
2023-05-20T10:17:34.698Z,98641.03
2023-05-20T10:19:36.521Z,98633.41
2023-05-20T10:21:38.276Z,98637.81
2023-05-20T10:23:40.043Z,98634.53
2023-05-20T10:25:51.423Z,98619.97
2023-05-20T10:28:03.905Z,98617.91
2023-05-20T10:30:15.995Z,98623.81
2023-05-20T10:32:30.354Z,98624.19
2023-05-20T10:34:46.875Z,98616.50
2023-05-20T10:36:54.338Z,98618.94
2023-05-20T10:39:00.927Z,98625.44
2023-05-20T10:41:11.413Z,98613.44
2023-05-20T10:43:18.847Z,98613.47
2023-05-20T10:45:29.635Z,98609.84
2023-05-20T10:47:31.899Z,98600.22
2023-05-20T10:49:35.386Z,98590.97
2023-05-20T10:51:37.703Z,98592.22
2023-05-20T10:53:45.741Z,98593.41
2023-05-20T10:55:53.436Z,98591.88
2023-05-20T10:57:55.500Z,98602.41
2023-05-20T10:59:57.592Z,98599.25
2023-05-20T11:02:01.596Z,98596.88
2023-05-20T11:04:05.364Z,98588.09
2023-05-20T11:06:16.051Z,98578.91
2023-05-20T11:08:27.725Z,98587.41
2023-05-20T11:10:30.545Z,98598.75
2023-05-20T11:12:32.924Z,98589.19
2023-05-20T11:14:38.934Z,98597.66
2023-05-20T11:16:51.994Z,98592.47
2023-05-20T11:18:56.627Z,98602.13
2023-05-20T11:21:04.762Z,98586.13
2023-05-20T11:23:11.553Z,98578.91
2023-05-20T11:25:13.100Z,98573.28
2023-05-20T11:27:14.740Z,98570.88
2023-05-20T11:29:17.870Z,98568.16
2023-05-20T11:31:20.786Z,98563.34
2023-05-20T11:33:27.257Z,98570.28
2023-05-20T11:35:33.305Z,98571.91
2023-05-20T11:37:36.400Z,98571.53
2023-05-20T11:39:40.131Z,98559.06
2023-05-20T11:41:45.766Z,98564.72
2023-05-20T11:43:47.236Z,98553.03
2023-05-20T11:45:59.767Z,98561.94
2023-05-20T11:48:03.644Z,98549.50
2023-05-20T11:50:06.010Z,98550.75
2023-05-20T11:52:09.849Z,98549.63
2023-05-20T11:54:11.842Z,98550.44
2023-05-20T11:56:14.467Z,98548.03
2023-05-20T11:58:20.796Z,98548.84
2023-05-20T12:00:23.977Z,98553.25
2023-05-20T12:02:25.622Z,98554.06
2023-05-20T12:04:28.500Z,98545.63
2023-05-20T12:06:30.009Z,98541.22
2023-05-20T12:08:31.797Z,98538.00
2023-05-20T12:10:34.250Z,98539.22
2023-05-20T12:12:38.372Z,98537.53
2023-05-20T12:14:41.054Z,98541.94
2023-05-20T12:16:42.727Z,98543.09
2023-05-20T12:18:44.484Z,98547.84
2023-05-20T12:20:46.105Z,98556.22
2023-05-20T12:22:48.300Z,98542.47
2023-05-20T12:24:50.431Z,98544.34
2023-05-20T12:26:54.379Z,98546.31
2023-05-20T12:28:56.711Z,98541.00
2023-05-20T12:30:58.404Z,98545.38
2023-05-20T12:32:59.907Z,98541.34
2023-05-20T12:35:01.475Z,98542.81
2023-05-20T12:37:03.038Z,98543.16
2023-05-20T12:39:04.758Z,98547.47
2023-05-20T12:41:06.345Z,98550.19
2023-05-20T12:43:08.109Z,98541.63
2023-05-20T12:45:10.306Z,98543.56
2023-05-20T12:47:12.259Z,98539.47
2023-05-20T12:49:13.727Z,98541.81
2023-05-20T12:51:15.238Z,98539.75
2023-05-20T12:53:16.823Z,98536.09
2023-05-20T12:55:18.474Z,98530.84
2023-05-20T12:57:19.955Z,98539.28
2023-05-20T12:59:21.512Z,98528.41
2023-05-20T13:01:23.172Z,98535.66
2023-05-20T13:03:24.858Z,98527.25
2023-05-20T13:05:26.676Z,98530.38
2023-05-20T13:07:28.211Z,98531.56
2023-05-20T13:09:30.102Z,98524.38
2023-05-20T13:11:31.795Z,98527.59
2023-05-20T13:13:33.414Z,98520.78
2023-05-20T13:15:35.561Z,98521.63
2023-05-20T13:17:37.117Z,98522.41
2023-05-20T13:19:38.720Z,98529.59
2023-05-20T13:21:40.390Z,98531.63
2023-05-20T13:23:42.685Z,98523.13
2023-05-20T13:25:44.375Z,98519.47
2023-05-20T13:27:45.993Z,98518.22
2023-05-20T13:29:47.582Z,98519.78
2023-05-20T13:31:49.360Z,98525.41
2023-05-20T13:34:01.015Z,98510.16
2023-05-20T13:36:02.996Z,98511.78
2023-05-20T13:38:04.554Z,98506.19
2023-05-20T13:40:06.884Z,98507.44
2023-05-20T13:42:08.524Z,98503.03
2023-05-20T13:44:10.382Z,98501.88
2023-05-20T13:46:12.043Z,98497.47
2023-05-20T13:48:13.978Z,98497.53
2023-05-20T13:50:19.694Z,98495.56
2023-05-20T13:52:21.384Z,98496.06
2023-05-20T13:54:22.963Z,98485.66
2023-05-20T13:56:24.601Z,98486.94
2023-05-20T13:58:26.171Z,98486.97
2023-05-20T14:00:27.855Z,98495.09
2023-05-20T14:02:31.006Z,98486.28
2023-05-20T14:04:37.977Z,98482.72
2023-05-20T14:06:39.959Z,98480.28
2023-05-20T14:08:41.713Z,98474.66
2023-05-20T14:10:47.537Z,98472.66
2023-05-20T14:12:49.102Z,98454.59
2023-05-20T14:14:53.813Z,98464.19
2023-05-20T14:16:55.453Z,98465.38
2023-05-20T14:18:57.143Z,98459.31
2023-05-20T14:20:58.776Z,98457.22
2023-05-20T14:23:01.547Z,98451.97
2023-05-20T14:25:03.314Z,98448.31
2023-05-20T14:27:05.033Z,98450.72
2023-05-20T14:29:06.682Z,98447.03
2023-05-20T14:31:11.430Z,98440.16
2023-05-20T14:33:13.059Z,98441.75
2023-05-20T14:35:14.826Z,98442.94
2023-05-20T14:37:16.985Z,98434.88
2023-05-20T14:39:18.525Z,98432.47
2023-05-20T14:41:20.104Z,98430.84
2023-05-20T14:43:22.750Z,98429.22
2023-05-20T14:45:24.777Z,98432.41
2023-05-20T14:47:26.761Z,98420.38
2023-05-20T14:49:28.934Z,98419.94
2023-05-20T14:51:31.436Z,98419.50
2023-05-20T14:53:33.057Z,98412.28
2023-05-20T14:55:34.811Z,98417.84
2023-05-20T14:57:36.495Z,98410.16
2023-05-20T14:59:38.126Z,98409.75
2023-05-20T15:01:39.736Z,98408.13
2023-05-20T15:03:41.547Z,98412.97
2023-05-20T15:05:43.535Z,98410.47
2023-05-20T15:07:46.764Z,98413.66
2023-05-20T15:09:52.806Z,98407.19
2023-05-20T15:11:54.272Z,98415.97
2023-05-20T15:13:55.869Z,98408.34
2023-05-20T15:15:57.377Z,98407.44
2023-05-20T15:17:59.028Z,98407.00
2023-05-20T15:20:02.479Z,98395.72
2023-05-20T15:22:04.175Z,98397.28
2023-05-20T15:24:05.973Z,98396.44
2023-05-20T15:26:07.816Z,98395.56
2023-05-20T15:28:09.521Z,98397.13
2023-05-20T15:30:11.882Z,98386.69
2023-05-20T15:32:13.465Z,98389.84
2023-05-20T15:34:15.243Z,98381.00
2023-05-20T15:36:26.455Z,98383.38
2023-05-20T15:38:28.011Z,98372.91
2023-05-20T15:40:29.588Z,98390.50
2023-05-20T15:42:31.889Z,98378.84
2023-05-20T15:44:42.451Z,98375.53
2023-05-20T15:46:44.970Z,98371.13
2023-05-20T15:48:46.746Z,98371.06
2023-05-20T15:50:48.425Z,98366.59
2023-05-20T15:52:53.179Z,98376.59
2023-05-20T15:54:55.903Z,98372.44
2023-05-20T15:56:58.090Z,98367.97
2023-05-20T15:58:59.884Z,98357.88
2023-05-20T16:01:01.609Z,98374.63
2023-05-20T16:03:03.293Z,98372.56
2023-05-20T16:05:05.802Z,98374.47
2023-05-20T16:07:07.553Z,98368.00
2023-05-20T16:09:11.487Z,98375.09
2023-05-20T16:11:13.108Z,98373.09
2023-05-20T16:13:14.780Z,98368.97
2023-05-20T16:15:16.325Z,98381.31
2023-05-20T16:17:21.145Z,98370.00
2023-05-20T16:19:23.161Z,98372.78
2023-05-20T16:21:26.174Z,98374.66
2023-05-20T16:23:27.785Z,98369.00
2023-05-20T16:25:29.405Z,98368.53
2023-05-20T16:27:31.996Z,98361.69
2023-05-20T16:29:34.954Z,98359.28
2023-05-20T16:31:36.541Z,98366.81
2023-05-20T16:33:38.191Z,98360.75
2023-05-20T16:35:39.917Z,98365.94
2023-05-20T16:37:41.617Z,98375.91
2023-05-20T16:39:43.209Z,98370.69
2023-05-20T16:41:44.740Z,98372.59
2023-05-20T16:43:47.483Z,98373.31
2023-05-20T16:45:49.042Z,98375.69
2023-05-20T16:47:50.727Z,98379.22
2023-05-20T16:49:52.462Z,98378.81
2023-05-20T16:51:55.774Z,98385.16
2023-05-20T16:53:57.423Z,98390.69
2023-05-20T16:56:08.234Z,98391.44
2023-05-20T16:58:10.100Z,98395.78
2023-05-20T17:00:11.999Z,98398.16
2023-05-20T17:02:13.646Z,98394.91
2023-05-20T17:04:15.689Z,98394.44
2023-05-20T17:06:17.601Z,98409.66
2023-05-20T17:08:19.130Z,98400.78
2023-05-20T17:10:20.825Z,98396.75
2023-05-20T17:12:23.204Z,98403.91
2023-05-20T17:14:27.096Z,98396.66
2023-05-20T17:16:28.813Z,98397.03
2023-05-20T17:18:30.419Z,98401.81
2023-05-20T17:20:32.590Z,98396.94
2023-05-20T17:22:34.524Z,98400.13
2023-05-20T17:24:36.840Z,98404.91
2023-05-20T17:26:38.518Z,98404.47
2023-05-20T17:28:40.070Z,98402.84
2023-05-20T17:30:41.913Z,98412.41
2023-05-20T17:32:43.745Z,98408.38
2023-05-20T17:34:45.454Z,98409.91
2023-05-20T17:36:47.038Z,98411.09
2023-05-20T17:38:49.558Z,98410.66
2023-05-20T17:40:53.618Z,98413.00
2023-05-20T17:42:55.428Z,98406.97
2023-05-20T17:44:56.988Z,98404.88
2023-05-20T17:46:58.484Z,98409.63
2023-05-20T17:49:00.048Z,98406.38
2023-05-20T17:51:01.839Z,98407.91
2023-05-20T17:53:03.425Z,98408.66
2023-05-20T17:55:06.621Z,98409.38
2023-05-20T17:57:08.372Z,98399.72
2023-05-20T17:59:11.550Z,98409.66
2023-05-20T18:01:13.257Z,98404.00
2023-05-20T18:03:14.913Z,98409.50
2023-05-20T18:05:19.684Z,98411.88
2023-05-20T18:07:21.214Z,98415.34
2023-05-20T18:09:22.849Z,98409.66
2023-05-20T18:11:27.236Z,98407.97
2023-05-20T18:13:29.128Z,98415.91
2023-05-20T18:15:30.921Z,98413.03
2023-05-20T18:17:32.416Z,98416.56
2023-05-20T18:19:34.103Z,98417.28
2023-05-20T18:21:35.793Z,98410.44
2023-05-20T18:23:37.292Z,98422.78
2023-05-20T18:25:41.064Z,98420.19
2023-05-20T18:27:44.352Z,98420.09
2023-05-20T18:29:46.278Z,98420.81
2023-05-20T18:31:47.919Z,98425.97
2023-05-20T18:33:49.510Z,98420.28
2023-05-20T18:35:51.873Z,98418.69
2023-05-20T18:37:56.479Z,98419.84
2023-05-20T18:39:59.015Z,98425.00
2023-05-20T18:42:00.578Z,98421.38
2023-05-20T18:44:03.849Z,98422.47
2023-05-20T18:46:06.861Z,98425.25
2023-05-20T18:48:08.809Z,98423.63
2023-05-20T18:50:11.496Z,98417.13
2023-05-20T18:52:13.190Z,98428.66
2023-05-20T18:54:14.809Z,98426.59
2023-05-20T18:56:17.489Z,98429.72
2023-05-20T18:58:19.039Z,98426.47
2023-05-20T19:00:20.762Z,98430.81
2023-05-20T19:02:22.357Z,98435.13
2023-05-20T19:04:28.117Z,98433.50
2023-05-20T19:06:29.705Z,98428.66
2023-05-20T19:08:32.409Z,98432.97
2023-05-20T19:10:36.183Z,98428.09
2023-05-20T19:12:37.958Z,98428.44
2023-05-20T19:14:39.546Z,98443.16
2023-05-20T19:16:44.136Z,98441.91
2023-05-20T19:18:45.825Z,98452.97
2023-05-20T19:20:47.559Z,98449.72
2023-05-20T19:22:49.164Z,98446.13
2023-05-20T19:24:53.637Z,98440.41
2023-05-20T19:26:55.249Z,98446.38
2023-05-20T19:28:56.771Z,98455.13
2023-05-20T19:30:58.395Z,98449.44
2023-05-20T19:33:02.364Z,98452.59
2023-05-20T19:35:05.877Z,98458.88
2023-05-20T19:37:07.602Z,98460.41
2023-05-20T19:39:09.608Z,98459.97
2023-05-20T19:41:13.037Z,98459.47
2023-05-20T19:43:17.686Z,98464.63
2023-05-20T19:45:20.721Z,98456.16
2023-05-20T19:47:24.773Z,98456.50
2023-05-20T19:49:29.496Z,98452.75
2023-05-20T19:51:31.116Z,98455.09
2023-05-20T19:53:32.663Z,98455.44
2023-05-20T19:55:35.880Z,98448.59
2023-05-20T19:57:37.938Z,98456.50
2023-05-20T19:59:39.619Z,98460.47
2023-05-20T20:01:41.396Z,98461.97
2023-05-20T20:03:44.103Z,98470.72
2023-05-20T20:05:45.893Z,98469.09
2023-05-20T20:07:47.946Z,98468.19
2023-05-20T20:09:51.541Z,98458.16
2023-05-20T20:11:53.320Z,98462.47
2023-05-20T20:13:54.948Z,98460.88
2023-05-20T20:15:59.420Z,98465.19
2023-05-20T20:18:02.932Z,98456.34
2023-05-20T20:20:10.548Z,98463.47
2023-05-20T20:22:12.644Z,98464.63
2023-05-20T20:24:15.136Z,98458.22
2023-05-20T20:26:16.705Z,98462.53
2023-05-20T20:28:18.600Z,98461.25
2023-05-20T20:30:23.508Z,98464.41
2023-05-20T20:32:28.266Z,98467.53
2023-05-20T20:34:30.087Z,98474.63
2023-05-20T20:36:32.125Z,98461.03
2023-05-20T20:38:33.806Z,98464.16
2023-05-20T20:40:41.985Z,98464.91
2023-05-20T20:42:45.200Z,98470.47
2023-05-20T20:44:48.345Z,98466.41
2023-05-20T20:46:52.882Z,98462.34
2023-05-20T20:48:54.708Z,98459.88
2023-05-20T20:50:57.593Z,98458.59
2023-05-20T20:52:59.324Z,98456.63
2023-05-20T20:55:00.891Z,98458.03
2023-05-20T20:57:02.873Z,98462.81
2023-05-20T20:59:05.660Z,98460.25
2023-05-20T21:01:07.448Z,98457.44
2023-05-20T21:03:09.186Z,98446.97
2023-05-20T21:05:10.745Z,98457.69
2023-05-20T21:07:12.477Z,98450.47
2023-05-20T21:09:14.616Z,98456.75
2023-05-20T21:11:18.447Z,98453.50
2023-05-20T21:13:20.214Z,98445.47
2023-05-20T21:15:22.094Z,98448.59
2023-05-20T21:17:23.718Z,98452.56
2023-05-20T21:19:25.836Z,98446.88
2023-05-20T21:21:27.714Z,98440.84
2023-05-20T21:23:29.315Z,98439.19
2023-05-20T21:25:30.948Z,98440.72
2023-05-20T21:27:32.718Z,98439.44
2023-05-20T21:29:35.216Z,98435.03
2023-05-20T21:31:36.993Z,98430.59
2023-05-20T21:33:38.761Z,98432.13
2023-05-20T21:35:40.546Z,98431.66
2023-05-20T21:37:44.596Z,98431.66
2023-05-20T21:39:46.232Z,98425.63
2023-05-20T21:41:48.063Z,98431.53
2023-05-20T21:43:49.792Z,98434.69
2023-05-20T21:45:57.138Z,98431.44
2023-05-20T21:47:58.763Z,98442.91
2023-05-20T21:50:00.646Z,98445.25
2023-05-20T21:52:02.370Z,98441.19
2023-05-20T21:54:04.182Z,98445.47
2023-05-20T21:56:08.803Z,98436.28
2023-05-20T21:58:10.571Z,98445.84
2023-05-20T22:00:15.101Z,98439.78
2023-05-20T22:02:17.839Z,98434.91
2023-05-20T22:04:21.054Z,98443.28
2023-05-20T22:06:22.972Z,98435.59
2023-05-20T22:08:26.477Z,98433.97
2023-05-20T22:10:28.034Z,98435.13
2023-05-20T22:12:31.856Z,98435.47
2023-05-20T22:14:33.958Z,98431.84
2023-05-20T22:16:36.244Z,98427.75
2023-05-20T22:18:38.602Z,98428.13
2023-05-20T22:20:40.273Z,98430.09
2023-05-20T22:22:42.491Z,98431.25
2023-05-20T22:24:44.183Z,98426.03
2023-05-20T22:26:46.105Z,98424.41
2023-05-20T22:28:48.341Z,98421.94
2023-05-20T22:30:50.256Z,98418.69
2023-05-20T22:32:52.255Z,98416.28
2023-05-20T22:34:58.170Z,98420.22
2023-05-20T22:37:02.887Z,98411.38
2023-05-20T22:39:06.642Z,98409.75
2023-05-20T22:41:09.043Z,98412.06
2023-05-20T22:43:13.174Z,98408.81
2023-05-20T22:45:15.289Z,98400.78
2023-05-20T22:47:16.986Z,98403.94
2023-05-20T22:49:18.999Z,98395.94
2023-05-20T22:51:24.704Z,98393.13
2023-05-20T22:53:27.165Z,98391.84
2023-05-20T22:55:28.870Z,98392.19
2023-05-20T22:57:30.495Z,98388.94
2023-05-20T22:59:32.779Z,98382.91
2023-05-20T23:01:34.795Z,98384.06
2023-05-20T23:03:36.641Z,98379.63
2023-05-20T23:05:38.383Z,98383.91
2023-05-20T23:07:40.114Z,98383.44
2023-05-20T23:09:41.937Z,98374.63
2023-05-20T23:11:46.156Z,98373.00
2023-05-20T23:13:48.201Z,98376.13
2023-05-20T23:15:50.155Z,98377.28
2023-05-20T23:17:52.307Z,98383.22
2023-05-20T23:19:53.973Z,98383.06
2023-05-20T23:21:56.128Z,98380.66
2023-05-20T23:23:57.702Z,98380.66
2023-05-20T23:26:00.114Z,98384.94
2023-05-20T23:28:01.777Z,98381.69
2023-05-20T23:30:04.019Z,98380.41
2023-05-20T23:32:05.756Z,98379.94
2023-05-20T23:34:07.347Z,98376.34
2023-05-20T23:36:09.771Z,98379.81
2023-05-20T23:38:11.346Z,98381.78
2023-05-20T23:40:16.304Z,98380.16
2023-05-20T23:42:20.532Z,98380.84
2023-05-20T23:44:22.242Z,98377.59
2023-05-20T23:46:23.914Z,98375.91
2023-05-20T23:48:26.464Z,98379.06
2023-05-20T23:50:30.750Z,98379.38
2023-05-20T23:52:32.340Z,98378.94
2023-05-20T23:54:34.362Z,98378.47
2023-05-20T23:56:35.917Z,98374.84
2023-05-20T23:58:39.365Z,98369.63
